sensor_id;sensor_type;location;lat;lon;timestamp;P1;durP1;ratioP1;P2;durP2;ratioP2
68273;SDS011;55104;47.356;19.448;2022-07-29T00:01:58;10.20;;;3.88;;
68273;SDS011;55104;47.356;19.448;2022-07-29T00:05:00;8.43;;;3.53;;
68273;SDS011;55104;47.356;19.448;2022-07-29T00:08:03;7.00;;;3.57;;
68273;SDS011;55104;47.356;19.448;2022-07-29T00:11:11;8.63;;;3.47;;
68273;SDS011;55104;47.356;19.448;2022-07-29T00:14:13;8.05;;;3.50;;
68273;SDS011;55104;47.356;19.448;2022-07-29T00:17:15;7.03;;;3.38;;
68273;SDS011;55104;47.356;19.448;2022-07-29T00:20:19;7.53;;;3.38;;
68273;SDS011;55104;47.356;19.448;2022-07-29T00:23:21;7.23;;;3.43;;
68273;SDS011;55104;47.356;19.448;2022-07-29T00:26:23;11.13;;;3.35;;
68273;SDS011;55104;47.356;19.448;2022-07-29T00:29:26;7.18;;;3.13;;
68273;SDS011;55104;47.356;19.448;2022-07-29T00:32:35;7.40;;;3.53;;
68273;SDS011;55104;47.356;19.448;2022-07-29T00:35:37;8.15;;;3.30;;
68273;SDS011;55104;47.356;19.448;2022-07-29T00:38:47;8.13;;;3.20;;
68273;SDS011;55104;47.356;19.448;2022-07-29T00:41:50;7.75;;;3.40;;
68273;SDS011;55104;47.356;19.448;2022-07-29T00:44:53;6.68;;;2.90;;
68273;SDS011;55104;47.356;19.448;2022-07-29T00:47:55;8.80;;;3.20;;
68273;SDS011;55104;47.356;19.448;2022-07-29T00:50:58;7.13;;;3.00;;
68273;SDS011;55104;47.356;19.448;2022-07-29T00:54:03;6.23;;;3.00;;
68273;SDS011;55104;47.356;19.448;2022-07-29T00:57:06;7.55;;;3.25;;
68273;SDS011;55104;47.356;19.448;2022-07-29T01:00:13;7.68;;;3.17;;
68273;SDS011;55104;47.356;19.448;2022-07-29T01:03:19;7.60;;;2.88;;
68273;SDS011;55104;47.356;19.448;2022-07-29T01:06:21;7.43;;;3.13;;
68273;SDS011;55104;47.356;19.448;2022-07-29T01:09:24;7.30;;;3.03;;
68273;SDS011;55104;47.356;19.448;2022-07-29T01:12:46;7.97;;;3.00;;
68273;SDS011;55104;47.356;19.448;2022-07-29T01:15:51;8.13;;;3.22;;
68273;SDS011;55104;47.356;19.448;2022-07-29T01:19:04;6.45;;;3.22;;
68273;SDS011;55104;47.356;19.448;2022-07-29T01:26:06;9.53;;;3.40;;
68273;SDS011;55104;47.356;19.448;2022-07-29T01:29:35;5.95;;;2.78;;
68273;SDS011;55104;47.356;19.448;2022-07-29T01:32:46;7.10;;;3.08;;
68273;SDS011;55104;47.356;19.448;2022-07-29T01:35:51;8.13;;;3.03;;
68273;SDS011;55104;47.356;19.448;2022-07-29T01:39:02;6.82;;;3.00;;
68273;SDS011;55104;47.356;19.448;2022-07-29T01:45:17;7.15;;;3.00;;
68273;SDS011;55104;47.356;19.448;2022-07-29T01:48:24;6.70;;;3.13;;
68273;SDS011;55104;47.356;19.448;2022-07-29T01:51:32;7.22;;;3.13;;
68273;SDS011;55104;47.356;19.448;2022-07-29T01:54:38;7.63;;;3.10;;
68273;SDS011;55104;47.356;19.448;2022-07-29T01:57:47;7.33;;;3.40;;
68273;SDS011;55104;47.356;19.448;2022-07-29T02:00:51;7.07;;;3.50;;
68273;SDS011;55104;47.356;19.448;2022-07-29T02:03:55;7.95;;;3.65;;
68273;SDS011;55104;47.356;19.448;2022-07-29T02:07:04;6.85;;;3.17;;
68273;SDS011;55104;47.356;19.448;2022-07-29T02:10:09;7.25;;;3.25;;
68273;SDS011;55104;47.356;19.448;2022-07-29T02:13:13;6.20;;;3.10;;
68273;SDS011;55104;47.356;19.448;2022-07-29T02:16:18;7.43;;;3.20;;
68273;SDS011;55104;47.356;19.448;2022-07-29T02:19:24;7.18;;;3.35;;
68273;SDS011;55104;47.356;19.448;2022-07-29T02:22:29;7.80;;;3.90;;
68273;SDS011;55104;47.356;19.448;2022-07-29T02:25:35;7.22;;;3.22;;
68273;SDS011;55104;47.356;19.448;2022-07-29T02:28:39;9.13;;;3.27;;
68273;SDS011;55104;47.356;19.448;2022-07-29T02:31:42;6.88;;;3.38;;
68273;SDS011;55104;47.356;19.448;2022-07-29T02:34:48;10.15;;;3.58;;
68273;SDS011;55104;47.356;19.448;2022-07-29T02:37:51;8.38;;;3.90;;
68273;SDS011;55104;47.356;19.448;2022-07-29T02:41:15;8.07;;;3.35;;
68273;SDS011;55104;47.356;19.448;2022-07-29T02:44:22;8.87;;;4.00;;
68273;SDS011;55104;47.356;19.448;2022-07-29T02:47:42;8.07;;;3.50;;
68273;SDS011;55104;47.356;19.448;2022-07-29T02:50:49;9.20;;;3.83;;
68273;SDS011;55104;47.356;19.448;2022-07-29T02:53:55;11.18;;;3.95;;
68273;SDS011;55104;47.356;19.448;2022-07-29T02:57:02;9.52;;;4.38;;
68273;SDS011;55104;47.356;19.448;2022-07-29T03:00:08;10.03;;;3.90;;
68273;SDS011;55104;47.356;19.448;2022-07-29T03:03:14;7.13;;;3.67;;
68273;SDS011;55104;47.356;19.448;2022-07-29T03:06:18;8.13;;;4.00;;
68273;SDS011;55104;47.356;19.448;2022-07-29T03:09:38;10.00;;;3.72;;
68273;SDS011;55104;47.356;19.448;2022-07-29T03:12:43;10.13;;;4.13;;
68273;SDS011;55104;47.356;19.448;2022-07-29T03:15:46;7.77;;;3.87;;
68273;SDS011;55104;47.356;19.448;2022-07-29T03:18:49;13.95;;;4.43;;
68273;SDS011;55104;47.356;19.448;2022-07-29T03:21:52;8.75;;;4.38;;
68273;SDS011;55104;47.356;19.448;2022-07-29T03:24:54;8.80;;;3.65;;
68273;SDS011;55104;47.356;19.448;2022-07-29T03:27:56;8.98;;;4.45;;
68273;SDS011;55104;47.356;19.448;2022-07-29T03:30:58;10.37;;;4.20;;
68273;SDS011;55104;47.356;19.448;2022-07-29T03:34:00;11.25;;;4.15;;
68273;SDS011;55104;47.356;19.448;2022-07-29T03:37:02;7.70;;;4.20;;
68273;SDS011;55104;47.356;19.448;2022-07-29T03:40:05;7.65;;;4.10;;
68273;SDS011;55104;47.356;19.448;2022-07-29T03:43:10;8.23;;;3.90;;
68273;SDS011;55104;47.356;19.448;2022-07-29T03:46:13;7.97;;;3.83;;
68273;SDS011;55104;47.356;19.448;2022-07-29T03:49:19;9.77;;;4.20;;
68273;SDS011;55104;47.356;19.448;2022-07-29T03:52:23;7.95;;;3.90;;
68273;SDS011;55104;47.356;19.448;2022-07-29T03:55:25;7.13;;;3.30;;
68273;SDS011;55104;47.356;19.448;2022-07-29T03:58:30;9.65;;;4.40;;
68273;SDS011;55104;47.356;19.448;2022-07-29T04:01:34;8.33;;;3.23;;
68273;SDS011;55104;47.356;19.448;2022-07-29T04:04:37;8.50;;;4.03;;
68273;SDS011;55104;47.356;19.448;2022-07-29T04:07:39;9.50;;;3.85;;
68273;SDS011;55104;47.356;19.448;2022-07-29T04:10:50;9.32;;;3.80;;
68273;SDS011;55104;47.356;19.448;2022-07-29T04:13:53;11.52;;;4.18;;
68273;SDS011;55104;47.356;19.448;2022-07-29T04:16:55;6.70;;;4.03;;
68273;SDS011;55104;47.356;19.448;2022-07-29T04:19:57;10.00;;;4.20;;
68273;SDS011;55104;47.356;19.448;2022-07-29T04:22:59;9.93;;;4.28;;
68273;SDS011;55104;47.356;19.448;2022-07-29T04:26:01;8.40;;;4.22;;
68273;SDS011;55104;47.356;19.448;2022-07-29T04:29:03;8.27;;;4.15;;
68273;SDS011;55104;47.356;19.448;2022-07-29T04:32:05;10.87;;;4.20;;
68273;SDS011;55104;47.356;19.448;2022-07-29T04:35:07;9.73;;;4.78;;
68273;SDS011;55104;47.356;19.448;2022-07-29T04:38:09;9.32;;;4.35;;
68273;SDS011;55104;47.356;19.448;2022-07-29T04:41:17;9.32;;;4.53;;
68273;SDS011;55104;47.356;19.448;2022-07-29T04:44:21;8.73;;;4.65;;
68273;SDS011;55104;47.356;19.448;2022-07-29T04:47:29;9.00;;;4.33;;
68273;SDS011;55104;47.356;19.448;2022-07-29T04:50:31;10.95;;;4.97;;
68273;SDS011;55104;47.356;19.448;2022-07-29T04:53:34;10.57;;;5.25;;
68273;SDS011;55104;47.356;19.448;2022-07-29T04:56:36;9.75;;;4.90;;
68273;SDS011;55104;47.356;19.448;2022-07-29T04:59:37;16.90;;;5.45;;
68273;SDS011;55104;47.356;19.448;2022-07-29T05:02:39;8.93;;;5.00;;
68273;SDS011;55104;47.356;19.448;2022-07-29T05:05:42;10.77;;;5.05;;
68273;SDS011;55104;47.356;19.448;2022-07-29T05:08:44;11.98;;;5.13;;
68273;SDS011;55104;47.356;19.448;2022-07-29T05:11:46;12.00;;;4.70;;
68273;SDS011;55104;47.356;19.448;2022-07-29T05:14:48;8.40;;;4.95;;
68273;SDS011;55104;47.356;19.448;2022-07-29T05:17:50;8.87;;;4.53;;
68273;SDS011;55104;47.356;19.448;2022-07-29T05:20:52;10.38;;;5.07;;
68273;SDS011;55104;47.356;19.448;2022-07-29T05:23:54;11.55;;;5.03;;
68273;SDS011;55104;47.356;19.448;2022-07-29T05:26:56;10.25;;;4.70;;
68273;SDS011;55104;47.356;19.448;2022-07-29T05:29:58;8.95;;;4.38;;
68273;SDS011;55104;47.356;19.448;2022-07-29T05:33:00;8.93;;;4.37;;
68273;SDS011;55104;47.356;19.448;2022-07-29T05:36:05;10.13;;;4.50;;
68273;SDS011;55104;47.356;19.448;2022-07-29T05:39:08;9.15;;;5.03;;
68273;SDS011;55104;47.356;19.448;2022-07-29T05:42:10;11.20;;;5.10;;
68273;SDS011;55104;47.356;19.448;2022-07-29T05:45:12;8.35;;;4.63;;
68273;SDS011;55104;47.356;19.448;2022-07-29T05:48:14;7.73;;;4.33;;
68273;SDS011;55104;47.356;19.448;2022-07-29T05:51:16;8.45;;;4.60;;
68273;SDS011;55104;47.356;19.448;2022-07-29T05:54:19;9.07;;;4.60;;
68273;SDS011;55104;47.356;19.448;2022-07-29T05:57:22;9.52;;;4.25;;
68273;SDS011;55104;47.356;19.448;2022-07-29T06:00:25;10.07;;;4.57;;
68273;SDS011;55104;47.356;19.448;2022-07-29T06:03:30;8.83;;;4.53;;
68273;SDS011;55104;47.356;19.448;2022-07-29T06:06:32;12.00;;;4.57;;
68273;SDS011;55104;47.356;19.448;2022-07-29T06:09:35;8.95;;;4.20;;
68273;SDS011;55104;47.356;19.448;2022-07-29T06:12:37;9.82;;;4.43;;
68273;SDS011;55104;47.356;19.448;2022-07-29T06:15:39;9.30;;;4.68;;
68273;SDS011;55104;47.356;19.448;2022-07-29T06:18:41;8.23;;;4.60;;
68273;SDS011;55104;47.356;19.448;2022-07-29T06:21:44;8.15;;;4.57;;
68273;SDS011;55104;47.356;19.448;2022-07-29T06:24:47;8.50;;;4.30;;
68273;SDS011;55104;47.356;19.448;2022-07-29T06:27:50;8.65;;;4.53;;
68273;SDS011;55104;47.356;19.448;2022-07-29T06:30:52;10.20;;;4.38;;
68273;SDS011;55104;47.356;19.448;2022-07-29T06:33:54;8.57;;;4.47;;
68273;SDS011;55104;47.356;19.448;2022-07-29T06:36:56;8.07;;;4.38;;
68273;SDS011;55104;47.356;19.448;2022-07-29T06:40:00;7.63;;;4.38;;
68273;SDS011;55104;47.356;19.448;2022-07-29T06:43:20;9.32;;;4.13;;
68273;SDS011;55104;47.356;19.448;2022-07-29T06:46:23;8.00;;;4.28;;
68273;SDS011;55104;47.356;19.448;2022-07-29T06:49:25;9.33;;;4.13;;
68273;SDS011;55104;47.356;19.448;2022-07-29T06:52:29;10.98;;;4.57;;
68273;SDS011;55104;47.356;19.448;2022-07-29T06:55:31;8.57;;;4.70;;
68273;SDS011;55104;47.356;19.448;2022-07-29T06:58:34;8.52;;;4.45;;
68273;SDS011;55104;47.356;19.448;2022-07-29T07:01:37;9.60;;;4.93;;
68273;SDS011;55104;47.356;19.448;2022-07-29T07:04:43;8.93;;;4.60;;
68273;SDS011;55104;47.356;19.448;2022-07-29T07:07:45;10.23;;;4.82;;
68273;SDS011;55104;47.356;19.448;2022-07-29T07:10:47;9.00;;;4.53;;
68273;SDS011;55104;47.356;19.448;2022-07-29T07:13:50;9.00;;;4.93;;
68273;SDS011;55104;47.356;19.448;2022-07-29T07:16:52;12.27;;;4.50;;
68273;SDS011;55104;47.356;19.448;2022-07-29T07:19:55;9.57;;;4.53;;
68273;SDS011;55104;47.356;19.448;2022-07-29T07:22:57;9.35;;;4.65;;
68273;SDS011;55104;47.356;19.448;2022-07-29T07:25:59;10.65;;;4.63;;
68273;SDS011;55104;47.356;19.448;2022-07-29T07:29:01;9.75;;;4.95;;
68273;SDS011;55104;47.356;19.448;2022-07-29T07:32:03;11.40;;;4.38;;
68273;SDS011;55104;47.356;19.448;2022-07-29T07:35:06;11.53;;;4.70;;
68273;SDS011;55104;47.356;19.448;2022-07-29T07:38:09;7.75;;;3.97;;
68273;SDS011;55104;47.356;19.448;2022-07-29T07:41:11;8.75;;;4.60;;
68273;SDS011;55104;47.356;19.448;2022-07-29T07:44:13;10.38;;;4.60;;
68273;SDS011;55104;47.356;19.448;2022-07-29T07:47:17;10.68;;;4.47;;
68273;SDS011;55104;47.356;19.448;2022-07-29T07:50:22;9.13;;;4.13;;
68273;SDS011;55104;47.356;19.448;2022-07-29T07:53:25;7.63;;;4.13;;
68273;SDS011;55104;47.356;19.448;2022-07-29T07:56:27;10.15;;;4.20;;
68273;SDS011;55104;47.356;19.448;2022-07-29T07:59:35;11.65;;;4.78;;
68273;SDS011;55104;47.356;19.448;2022-07-29T08:02:37;8.98;;;4.60;;
68273;SDS011;55104;47.356;19.448;2022-07-29T08:05:41;7.60;;;4.47;;
68273;SDS011;55104;47.356;19.448;2022-07-29T08:08:43;10.65;;;4.00;;
68273;SDS011;55104;47.356;19.448;2022-07-29T08:11:45;9.05;;;4.45;;
68273;SDS011;55104;47.356;19.448;2022-07-29T08:14:52;9.35;;;4.50;;
68273;SDS011;55104;47.356;19.448;2022-07-29T08:17:55;11.07;;;4.60;;
68273;SDS011;55104;47.356;19.448;2022-07-29T08:20:57;8.57;;;4.10;;
68273;SDS011;55104;47.356;19.448;2022-07-29T08:24:00;9.35;;;4.78;;
68273;SDS011;55104;47.356;19.448;2022-07-29T08:27:20;8.20;;;4.20;;
68273;SDS011;55104;47.356;19.448;2022-07-29T08:30:42;7.78;;;4.00;;
68273;SDS011;55104;47.356;19.448;2022-07-29T08:33:44;7.47;;;4.50;;
68273;SDS011;55104;47.356;19.448;2022-07-29T08:36:46;9.33;;;4.50;;
68273;SDS011;55104;47.356;19.448;2022-07-29T08:39:52;9.10;;;4.07;;
68273;SDS011;55104;47.356;19.448;2022-07-29T08:42:54;7.63;;;3.95;;
68273;SDS011;55104;47.356;19.448;2022-07-29T08:45:56;7.85;;;4.00;;
68273;SDS011;55104;47.356;19.448;2022-07-29T08:48:58;10.10;;;4.57;;
68273;SDS011;55104;47.356;19.448;2022-07-29T08:52:00;9.07;;;4.20;;
68273;SDS011;55104;47.356;19.448;2022-07-29T08:55:03;8.73;;;3.97;;
68273;SDS011;55104;47.356;19.448;2022-07-29T08:58:07;7.22;;;3.90;;
68273;SDS011;55104;47.356;19.448;2022-07-29T09:01:12;11.30;;;4.05;;
68273;SDS011;55104;47.356;19.448;2022-07-29T09:04:20;6.70;;;3.58;;
68273;SDS011;55104;47.356;19.448;2022-07-29T09:07:23;7.63;;;3.83;;
68273;SDS011;55104;47.356;19.448;2022-07-29T09:10:35;8.27;;;3.92;;
68273;SDS011;55104;47.356;19.448;2022-07-29T09:13:37;8.05;;;3.50;;
68273;SDS011;55104;47.356;19.448;2022-07-29T09:16:46;7.05;;;3.67;;
68273;SDS011;55104;47.356;19.448;2022-07-29T09:19:54;8.40;;;3.42;;
68273;SDS011;55104;47.356;19.448;2022-07-29T09:23:10;8.53;;;3.20;;
68273;SDS011;55104;47.356;19.448;2022-07-29T09:26:27;6.53;;;3.17;;
68273;SDS011;55104;47.356;19.448;2022-07-29T09:29:31;6.07;;;3.20;;
68273;SDS011;55104;47.356;19.448;2022-07-29T09:36:05;6.75;;;3.45;;
68273;SDS011;55104;47.356;19.448;2022-07-29T09:39:09;8.03;;;3.30;;
68273;SDS011;55104;47.356;19.448;2022-07-29T09:42:12;7.57;;;3.30;;
68273;SDS011;55104;47.356;19.448;2022-07-29T09:45:27;6.38;;;3.20;;
68273;SDS011;55104;47.356;19.448;2022-07-29T09:48:33;8.32;;;3.05;;
68273;SDS011;55104;47.356;19.448;2022-07-29T09:51:36;8.90;;;3.25;;
68273;SDS011;55104;47.356;19.448;2022-07-29T09:54:39;9.27;;;3.60;;
68273;SDS011;55104;47.356;19.448;2022-07-29T09:57:41;8.70;;;3.58;;
68273;SDS011;55104;47.356;19.448;2022-07-29T10:00:44;6.70;;;3.67;;
68273;SDS011;55104;47.356;19.448;2022-07-29T10:03:51;6.95;;;2.90;;
68273;SDS011;55104;47.356;19.448;2022-07-29T10:06:57;6.97;;;2.90;;
68273;SDS011;55104;47.356;19.448;2022-07-29T10:10:06;7.80;;;2.90;;
68273;SDS011;55104;47.356;19.448;2022-07-29T10:13:10;6.25;;;2.92;;
68273;SDS011;55104;47.356;19.448;2022-07-29T10:16:17;7.78;;;3.15;;
68273;SDS011;55104;47.356;19.448;2022-07-29T10:19:19;9.43;;;2.78;;
68273;SDS011;55104;47.356;19.448;2022-07-29T10:22:21;6.07;;;2.70;;
68273;SDS011;55104;47.356;19.448;2022-07-29T10:25:45;7.43;;;2.90;;
68273;SDS011;55104;47.356;19.448;2022-07-29T10:28:47;7.10;;;2.60;;
68273;SDS011;55104;47.356;19.448;2022-07-29T10:32:04;8.20;;;3.00;;
68273;SDS011;55104;47.356;19.448;2022-07-29T10:44:59;7.43;;;2.47;;
68273;SDS011;55104;47.356;19.448;2022-07-29T10:48:05;6.50;;;3.10;;
68273;SDS011;55104;47.356;19.448;2022-07-29T10:51:08;5.85;;;2.63;;
68273;SDS011;55104;47.356;19.448;2022-07-29T10:54:13;5.78;;;2.80;;
68273;SDS011;55104;47.356;19.448;2022-07-29T11:00:52;6.45;;;2.80;;
68273;SDS011;55104;47.356;19.448;2022-07-29T11:03:56;6.82;;;2.78;;
68273;SDS011;55104;47.356;19.448;2022-07-29T11:13:44;6.70;;;2.80;;
68273;SDS011;55104;47.356;19.448;2022-07-29T11:16:59;6.72;;;2.55;;
68273;SDS011;55104;47.356;19.448;2022-07-29T11:23:38;5.78;;;2.78;;
68273;SDS011;55104;47.356;19.448;2022-07-29T11:26:43;9.23;;;2.83;;
68273;SDS011;55104;47.356;19.448;2022-07-29T11:33:27;7.57;;;2.83;;
68273;SDS011;55104;47.356;19.448;2022-07-29T11:40:11;9.80;;;2.90;;
68273;SDS011;55104;47.356;19.448;2022-07-29T11:43:30;10.50;;;3.38;;
68273;SDS011;55104;47.356;19.448;2022-07-29T11:46:51;6.63;;;2.67;;
68273;SDS011;55104;47.356;19.448;2022-07-29T11:49:55;5.75;;;2.85;;
68273;SDS011;55104;47.356;19.448;2022-07-29T11:53:01;6.63;;;2.70;;
68273;SDS011;55104;47.356;19.448;2022-07-29T11:56:11;8.35;;;3.00;;
68273;SDS011;55104;47.356;19.448;2022-07-29T11:59:17;6.00;;;2.80;;
68273;SDS011;55104;47.356;19.448;2022-07-29T12:02:21;7.87;;;2.90;;
68273;SDS011;55104;47.356;19.448;2022-07-29T12:05:43;6.10;;;3.00;;
68273;SDS011;55104;47.356;19.448;2022-07-29T12:08:49;8.38;;;2.97;;
68273;SDS011;55104;47.356;19.448;2022-07-29T12:11:57;6.40;;;3.00;;
68273;SDS011;55104;47.356;19.448;2022-07-29T12:15:13;6.20;;;2.80;;
68273;SDS011;55104;47.356;19.448;2022-07-29T12:18:23;5.93;;;2.77;;
68273;SDS011;55104;47.356;19.448;2022-07-29T12:21:25;6.10;;;2.90;;
68273;SDS011;55104;47.356;19.448;2022-07-29T12:24:42;6.97;;;2.85;;
68273;SDS011;55104;47.356;19.448;2022-07-29T12:27:45;6.47;;;3.10;;
68273;SDS011;55104;47.356;19.448;2022-07-29T12:30:49;6.40;;;2.42;;
68273;SDS011;55104;47.356;19.448;2022-07-29T12:33:52;6.77;;;3.07;;
68273;SDS011;55104;47.356;19.448;2022-07-29T12:36:56;6.18;;;2.63;;
68273;SDS011;55104;47.356;19.448;2022-07-29T12:39:58;5.80;;;3.08;;
68273;SDS011;55104;47.356;19.448;2022-07-29T12:43:08;6.82;;;2.97;;
68273;SDS011;55104;47.356;19.448;2022-07-29T12:46:14;7.93;;;2.85;;
68273;SDS011;55104;47.356;19.448;2022-07-29T12:49:23;6.43;;;2.63;;
68273;SDS011;55104;47.356;19.448;2022-07-29T12:55:40;7.18;;;2.85;;
68273;SDS011;55104;47.356;19.448;2022-07-29T12:58:50;7.68;;;3.08;;
68273;SDS011;55104;47.356;19.448;2022-07-29T13:01:53;7.97;;;2.75;;
68273;SDS011;55104;47.356;19.448;2022-07-29T13:04:56;6.53;;;2.70;;
68273;SDS011;55104;47.356;19.448;2022-07-29T13:08:14;6.55;;;2.97;;
68273;SDS011;55104;47.356;19.448;2022-07-29T13:11:29;6.93;;;3.17;;
68273;SDS011;55104;47.356;19.448;2022-07-29T13:14:52;6.43;;;2.90;;
68273;SDS011;55104;47.356;19.448;2022-07-29T13:17:54;7.07;;;3.05;;
68273;SDS011;55104;47.356;19.448;2022-07-29T13:20:56;5.87;;;2.70;;
68273;SDS011;55104;47.356;19.448;2022-07-29T13:23:58;6.47;;;2.50;;
68273;SDS011;55104;47.356;19.448;2022-07-29T13:27:01;5.30;;;2.47;;
68273;SDS011;55104;47.356;19.448;2022-07-29T13:30:07;7.32;;;2.70;;
68273;SDS011;55104;47.356;19.448;2022-07-29T13:33:10;6.63;;;2.90;;
68273;SDS011;55104;47.356;19.448;2022-07-29T13:36:13;5.87;;;3.00;;
68273;SDS011;55104;47.356;19.448;2022-07-29T13:39:15;7.22;;;2.60;;
68273;SDS011;55104;47.356;19.448;2022-07-29T13:42:17;5.35;;;2.58;;
68273;SDS011;55104;47.356;19.448;2022-07-29T13:45:19;6.43;;;3.00;;
68273;SDS011;55104;47.356;19.448;2022-07-29T13:48:21;7.05;;;2.83;;
68273;SDS011;55104;47.356;19.448;2022-07-29T13:51:23;7.30;;;2.80;;
68273;SDS011;55104;47.356;19.448;2022-07-29T13:54:25;5.78;;;2.60;;
68273;SDS011;55104;47.356;19.448;2022-07-29T13:57:28;7.03;;;2.90;;
68273;SDS011;55104;47.356;19.448;2022-07-29T14:00:30;6.50;;;2.63;;
68273;SDS011;55104;47.356;19.448;2022-07-29T14:03:32;6.55;;;3.00;;
68273;SDS011;55104;47.356;19.448;2022-07-29T14:06:35;6.40;;;2.70;;
68273;SDS011;55104;47.356;19.448;2022-07-29T14:09:41;5.13;;;2.63;;
68273;SDS011;55104;47.356;19.448;2022-07-29T14:12:43;6.93;;;3.00;;
68273;SDS011;55104;47.356;19.448;2022-07-29T14:15:45;7.03;;;2.83;;
68273;SDS011;55104;47.356;19.448;2022-07-29T14:18:47;6.55;;;2.97;;
68273;SDS011;55104;47.356;19.448;2022-07-29T14:21:49;8.33;;;3.37;;
68273;SDS011;55104;47.356;19.448;2022-07-29T14:24:51;7.53;;;3.30;;
68273;SDS011;55104;47.356;19.448;2022-07-29T14:27:54;6.15;;;3.15;;
68273;SDS011;55104;47.356;19.448;2022-07-29T14:30:59;6.03;;;3.00;;
68273;SDS011;55104;47.356;19.448;2022-07-29T14:34:01;6.32;;;2.97;;
68273;SDS011;55104;47.356;19.448;2022-07-29T14:37:03;7.33;;;3.10;;
68273;SDS011;55104;47.356;19.448;2022-07-29T14:40:17;8.52;;;2.95;;
68273;SDS011;55104;47.356;19.448;2022-07-29T14:43:19;7.07;;;3.15;;
68273;SDS011;55104;47.356;19.448;2022-07-29T14:46:22;7.10;;;2.97;;
68273;SDS011;55104;47.356;19.448;2022-07-29T14:49:24;7.57;;;3.33;;
68273;SDS011;55104;47.356;19.448;2022-07-29T14:52:27;12.30;;;3.57;;
68273;SDS011;55104;47.356;19.448;2022-07-29T14:55:29;7.10;;;3.00;;
68273;SDS011;55104;47.356;19.448;2022-07-29T14:58:31;9.30;;;3.58;;
68273;SDS011;55104;47.356;19.448;2022-07-29T15:01:33;6.03;;;3.15;;
68273;SDS011;55104;47.356;19.448;2022-07-29T15:04:35;8.40;;;3.22;;
68273;SDS011;55104;47.356;19.448;2022-07-29T15:07:37;6.67;;;3.23;;
68273;SDS011;55104;47.356;19.448;2022-07-29T15:10:39;7.30;;;3.15;;
68273;SDS011;55104;47.356;19.448;2022-07-29T15:13:41;7.75;;;3.30;;
68273;SDS011;55104;47.356;19.448;2022-07-29T15:16:43;9.45;;;3.35;;
68273;SDS011;55104;47.356;19.448;2022-07-29T15:19:48;8.20;;;3.30;;
68273;SDS011;55104;47.356;19.448;2022-07-29T15:22:50;6.73;;;3.30;;
68273;SDS011;55104;47.356;19.448;2022-07-29T15:25:52;6.80;;;3.20;;
68273;SDS011;55104;47.356;19.448;2022-07-29T15:28:54;6.00;;;3.47;;
68273;SDS011;55104;47.356;19.448;2022-07-29T15:32:04;7.68;;;3.67;;
68273;SDS011;55104;47.356;19.448;2022-07-29T15:35:06;6.50;;;3.08;;
68273;SDS011;55104;47.356;19.448;2022-07-29T15:38:08;8.27;;;3.20;;
68273;SDS011;55104;47.356;19.448;2022-07-29T15:41:13;7.32;;;3.20;;
68273;SDS011;55104;47.356;19.448;2022-07-29T15:44:15;8.77;;;3.58;;
68273;SDS011;55104;47.356;19.448;2022-07-29T15:47:18;6.63;;;2.70;;
68273;SDS011;55104;47.356;19.448;2022-07-29T15:50:20;6.63;;;3.35;;
68273;SDS011;55104;47.356;19.448;2022-07-29T15:53:22;7.27;;;3.30;;
68273;SDS011;55104;47.356;19.448;2022-07-29T15:56:24;6.20;;;3.17;;
68273;SDS011;55104;47.356;19.448;2022-07-29T15:59:26;6.05;;;3.10;;
68273;SDS011;55104;47.356;19.448;2022-07-29T16:02:28;7.25;;;3.38;;
68273;SDS011;55104;47.356;19.448;2022-07-29T16:05:30;10.88;;;3.53;;
68273;SDS011;55104;47.356;19.448;2022-07-29T16:08:32;10.20;;;3.20;;
68273;SDS011;55104;47.356;19.448;2022-07-29T16:11:35;6.35;;;3.38;;
68273;SDS011;55104;47.356;19.448;2022-07-29T16:14:37;7.38;;;3.50;;
68273;SDS011;55104;47.356;19.448;2022-07-29T16:17:39;6.82;;;3.10;;
68273;SDS011;55104;47.356;19.448;2022-07-29T16:20:41;6.90;;;3.17;;
68273;SDS011;55104;47.356;19.448;2022-07-29T16:23:43;6.60;;;3.10;;
68273;SDS011;55104;47.356;19.448;2022-07-29T16:26:45;7.47;;;3.42;;
68273;SDS011;55104;47.356;19.448;2022-07-29T16:29:48;6.60;;;3.28;;
68273;SDS011;55104;47.356;19.448;2022-07-29T16:32:50;6.57;;;3.17;;
68273;SDS011;55104;47.356;19.448;2022-07-29T16:35:54;6.80;;;3.70;;
68273;SDS011;55104;47.356;19.448;2022-07-29T16:38:56;7.33;;;3.57;;
68273;SDS011;55104;47.356;19.448;2022-07-29T16:41:58;7.55;;;3.58;;
68273;SDS011;55104;47.356;19.448;2022-07-29T16:45:04;8.23;;;3.60;;
68273;SDS011;55104;47.356;19.448;2022-07-29T16:48:07;6.82;;;3.28;;
68273;SDS011;55104;47.356;19.448;2022-07-29T16:51:10;8.23;;;3.10;;
68273;SDS011;55104;47.356;19.448;2022-07-29T16:54:15;7.17;;;3.53;;
68273;SDS011;55104;47.356;19.448;2022-07-29T16:57:17;11.43;;;4.38;;
68273;SDS011;55104;47.356;19.448;2022-07-29T17:00:19;6.65;;;3.92;;
68273;SDS011;55104;47.356;19.448;2022-07-29T17:03:21;8.50;;;3.28;;
68273;SDS011;55104;47.356;19.448;2022-07-29T17:06:24;7.13;;;3.17;;
68273;SDS011;55104;47.356;19.448;2022-07-29T17:09:26;6.90;;;3.23;;
68273;SDS011;55104;47.356;19.448;2022-07-29T17:12:28;7.00;;;3.30;;
68273;SDS011;55104;47.356;19.448;2022-07-29T17:15:30;7.00;;;3.67;;
68273;SDS011;55104;47.356;19.448;2022-07-29T17:18:37;7.40;;;3.10;;
68273;SDS011;55104;47.356;19.448;2022-07-29T17:21:39;9.32;;;3.42;;
68273;SDS011;55104;47.356;19.448;2022-07-29T17:24:49;8.63;;;3.53;;
68273;SDS011;55104;47.356;19.448;2022-07-29T17:27:52;10.10;;;3.55;;
68273;SDS011;55104;47.356;19.448;2022-07-29T17:31:01;6.90;;;3.28;;
68273;SDS011;55104;47.356;19.448;2022-07-29T17:34:03;7.70;;;3.25;;
68273;SDS011;55104;47.356;19.448;2022-07-29T17:37:07;10.43;;;3.72;;
68273;SDS011;55104;47.356;19.448;2022-07-29T17:40:10;11.40;;;3.83;;
68273;SDS011;55104;47.356;19.448;2022-07-29T17:43:12;10.10;;;3.53;;
68273;SDS011;55104;47.356;19.448;2022-07-29T17:46:15;10.10;;;4.50;;
68273;SDS011;55104;47.356;19.448;2022-07-29T17:49:18;15.07;;;3.90;;
68273;SDS011;55104;47.356;19.448;2022-07-29T17:52:20;9.38;;;3.67;;
68273;SDS011;55104;47.356;19.448;2022-07-29T17:55:22;10.87;;;3.70;;
68273;SDS011;55104;47.356;19.448;2022-07-29T17:58:24;15.52;;;3.97;;
68273;SDS011;55104;47.356;19.448;2022-07-29T18:01:26;12.45;;;4.00;;
68273;SDS011;55104;47.356;19.448;2022-07-29T18:04:29;13.57;;;3.78;;
68273;SDS011;55104;47.356;19.448;2022-07-29T18:07:32;12.38;;;4.32;;
68273;SDS011;55104;47.356;19.448;2022-07-29T18:10:34;16.10;;;4.27;;
68273;SDS011;55104;47.356;19.448;2022-07-29T18:13:37;16.23;;;4.10;;
68273;SDS011;55104;47.356;19.448;2022-07-29T18:16:39;9.40;;;4.22;;
68273;SDS011;55104;47.356;19.448;2022-07-29T18:19:41;10.50;;;4.97;;
68273;SDS011;55104;47.356;19.448;2022-07-29T18:22:43;11.55;;;4.55;;
68273;SDS011;55104;47.356;19.448;2022-07-29T18:25:45;9.07;;;3.77;;
68273;SDS011;55104;47.356;19.448;2022-07-29T18:28:48;13.48;;;4.20;;
68273;SDS011;55104;47.356;19.448;2022-07-29T18:31:50;11.15;;;3.85;;
68273;SDS011;55104;47.356;19.448;2022-07-29T18:34:52;8.75;;;3.58;;
68273;SDS011;55104;47.356;19.448;2022-07-29T18:37:54;10.30;;;4.00;;
68273;SDS011;55104;47.356;19.448;2022-07-29T18:41:03;13.50;;;4.07;;
68273;SDS011;55104;47.356;19.448;2022-07-29T18:44:05;13.73;;;4.07;;
68273;SDS011;55104;47.356;19.448;2022-07-29T18:47:07;19.00;;;5.93;;
68273;SDS011;55104;47.356;19.448;2022-07-29T18:50:12;13.43;;;4.40;;
68273;SDS011;55104;47.356;19.448;2022-07-29T18:53:15;16.67;;;4.20;;
68273;SDS011;55104;47.356;19.448;2022-07-29T18:56:18;24.67;;;5.00;;